createdAt,value
2022-11-12T00:05:00.460Z,98002.19
2022-11-12T00:10:23.300Z,97995.97
2022-11-12T00:15:46.729Z,97991.91
2022-11-12T00:21:08.585Z,97990.63
2022-11-12T00:26:30.555Z,97995.22
2022-11-12T00:31:52.226Z,97992.78
2022-11-12T00:37:14.696Z,97988.44
2022-11-12T00:42:37.040Z,97991.16
2022-11-12T00:47:58.533Z,97994.34
2022-11-12T00:53:20.202Z,97984.06
2022-11-12T00:58:42.655Z,97985.13
2022-11-12T01:04:04.379Z,97985.13
2022-11-12T01:09:26.145Z,97986.81
2022-11-12T01:14:48.379Z,97993.03
2022-11-12T01:20:10.676Z,97978.66
2022-11-12T01:25:32.712Z,97987.50
2022-11-12T01:30:54.528Z,97977.78
2022-11-12T01:36:18.462Z,97987.50
2022-11-12T01:41:42.048Z,97981.84
2022-11-12T01:47:29.220Z,97984.06
2022-11-12T01:52:56.893Z,97988.66
2022-11-12T01:58:22.450Z,97989.47
2022-11-12T02:03:44.873Z,97994.28
2022-11-12T02:09:07.568Z,97996.97
2022-11-12T02:14:30.186Z,97991.78
2022-11-12T02:19:53.344Z,97995.06
2022-11-12T02:25:21.277Z,98005.09
2022-11-12T02:30:46.251Z,97997.00
2022-11-12T02:36:09.144Z,97988.06
2022-11-12T02:41:30.812Z,98004.88
2022-11-12T02:46:52.601Z,98005.91
2022-11-12T02:52:14.952Z,98003.41
2022-11-12T02:57:39.607Z,98000.41
2022-11-12T03:03:04.025Z,98007.66
2022-11-12T03:08:28.765Z,98003.88
2022-11-12T03:13:51.126Z,98011.19
2022-11-12T03:19:13.450Z,98013.31
2022-11-12T03:24:35.702Z,98009.22
2022-11-12T03:29:57.521Z,98014.63
2022-11-12T03:35:19.617Z,98023.56
2022-11-12T03:40:41.393Z,98020.56
2022-11-12T03:46:02.971Z,98027.78
2022-11-12T03:51:25.121Z,98027.22
2022-11-12T03:56:47.449Z,98032.88
2022-11-12T04:02:09.277Z,98028.03
2022-11-12T04:07:32.147Z,98032.13
2022-11-12T04:12:54.853Z,98031.31
2022-11-12T04:18:16.579Z,98043.44
2022-11-12T04:23:40.755Z,98044.31
2022-11-12T04:29:02.751Z,98053.81
2022-11-12T04:34:24.209Z,98058.69
2022-11-12T04:39:45.989Z,98064.09
2022-11-12T04:45:11.377Z,98070.38
2022-11-12T04:50:32.913Z,98076.59
2022-11-12T04:56:00.709Z,98087.50
2022-11-12T05:01:22.499Z,98111.34
2022-11-12T05:06:44.419Z,98100.81
2022-11-12T05:12:07.036Z,98100.06
2022-11-12T05:17:29.270Z,98098.50
2022-11-12T05:23:05.565Z,98110.50
2022-11-12T05:28:28.630Z,98113.84
2022-11-12T05:33:50.881Z,98122.09
2022-11-12T05:39:12.610Z,98123.50
2022-11-12T05:44:35.211Z,98120.88
2022-11-12T05:49:59.550Z,98122.53
2022-11-12T05:55:21.960Z,98127.53
2022-11-12T06:00:43.822Z,98129.03
2022-11-12T06:06:05.715Z,98133.19
2022-11-12T06:11:27.718Z,98137.84
2022-11-12T06:16:50.386Z,98145.22
2022-11-12T06:22:12.414Z,98146.03
2022-11-12T06:27:34.073Z,98145.69
2022-11-12T06:32:55.645Z,98146.75
2022-11-12T06:38:17.349Z,98146.81
2022-11-12T06:43:40.373Z,98137.31
2022-11-12T06:49:01.808Z,98145.75
2022-11-12T06:54:23.753Z,98146.28
2022-11-12T06:59:45.119Z,98144.72
2022-11-12T07:05:08.027Z,98146.88
2022-11-12T07:10:29.570Z,98156.88
2022-11-12T07:15:51.750Z,98151.94
2022-11-12T07:21:17.321Z,98164.69
2022-11-12T07:26:43.231Z,98171.25
2022-11-12T07:32:09.158Z,98163.16
2022-11-12T07:37:31.209Z,98166.97
2022-11-12T07:42:53.121Z,98171.06
2022-11-12T07:48:14.752Z,98173.28
2022-11-12T07:55:58.845Z,98154.31
2022-11-12T08:01:29.367Z,98155.44
2022-11-12T08:06:51.696Z,98157.06
2022-11-12T08:12:13.992Z,98157.34
2022-11-12T08:17:39.406Z,98159.75
2022-11-12T08:23:01.432Z,98158.38
2022-11-12T08:28:23.590Z,98147.25
2022-11-12T08:33:45.818Z,98133.06
2022-11-12T08:39:08.846Z,98135.25
2022-11-12T08:44:31.613Z,98140.91
2022-11-12T08:49:53.774Z,98135.41
2022-11-12T08:55:15.426Z,98138.69
2022-11-12T09:00:40.938Z,98133.25
2022-11-12T09:06:04.552Z,98125.38
2022-11-12T09:11:26.669Z,98124.78
2022-11-12T09:16:49.150Z,98107.84
2022-11-12T09:22:10.428Z,98096.91
2022-11-12T09:27:32.028Z,98093.66
2022-11-12T09:33:00.119Z,98092.25
2022-11-12T09:38:22.334Z,98095.50
2022-11-12T09:43:53.704Z,98078.03
2022-11-12T09:49:24.199Z,98082.06
2022-11-12T09:54:50.797Z,98083.97
2022-11-12T10:00:20.286Z,98073.91
2022-11-12T10:05:54.735Z,98063.81
2022-11-12T10:11:48.567Z,98063.50
2022-11-12T10:17:50.832Z,98055.06
2022-11-12T10:23:43.837Z,98059.63
2022-11-12T10:29:11.184Z,98053.03
2022-11-12T10:34:33.244Z,98046.25
2022-11-12T10:39:56.294Z,98042.72
2022-11-12T10:45:22.292Z,98037.25
2022-11-12T10:50:43.852Z,98033.94
2022-11-12T10:56:24.969Z,98041.28
2022-11-12T11:01:55.457Z,98039.84
2022-11-12T11:07:25.768Z,98047.69
2022-11-12T11:12:47.988Z,98041.22
2022-11-12T11:18:14.464Z,98044.75
2022-11-12T11:23:46.686Z,98042.78
2022-11-12T11:29:30.990Z,98055.84
2022-11-12T11:35:09.861Z,98061.25
2022-11-12T11:41:05.392Z,98068.66
2022-11-12T11:46:40.094Z,98067.38
2022-11-12T11:52:40.264Z,98060.00
2022-11-12T11:58:17.087Z,98061.03
2022-11-12T12:04:05.485Z,98060.19
2022-11-12T12:09:44.688Z,98058.81
2022-11-12T12:15:09.818Z,98054.44
2022-11-12T12:20:43.117Z,98052.31
2022-11-12T12:26:14.294Z,98048.50
2022-11-12T12:31:43.761Z,98055.66
2022-11-12T12:37:41.817Z,98053.47
2022-11-12T12:43:13.429Z,98045.09
2022-11-12T12:48:40.834Z,98048.38
2022-11-12T12:54:03.070Z,98060.66
2022-11-12T12:59:24.995Z,98063.66
2022-11-12T13:04:56.608Z,98057.38
2022-11-12T13:10:37.205Z,98068.06
2022-11-12T13:16:00.983Z,98066.47
2022-11-12T13:21:22.939Z,98078.22
2022-11-12T13:26:59.489Z,98078.06
2022-11-12T13:32:43.913Z,98080.63
2022-11-12T13:38:08.380Z,98089.44
2022-11-12T13:43:42.458Z,98100.69
2022-11-12T13:49:13.114Z,98098.56
2022-11-12T13:54:39.125Z,98092.31
2022-11-12T14:00:28.955Z,98098.31
2022-11-12T14:05:51.549Z,98104.91
2022-11-12T14:11:38.414Z,98098.38
2022-11-12T14:17:27.996Z,98104.06
2022-11-12T14:22:50.566Z,98103.53
2022-11-12T14:28:27.897Z,98116.56
2022-11-12T14:33:50.220Z,98114.66
2022-11-12T14:39:14.350Z,98117.06
2022-11-12T14:44:38.208Z,98121.13
2022-11-12T14:50:00.176Z,98118.97
2022-11-12T14:55:29.617Z,98127.34
2022-11-12T15:00:53.830Z,98131.94
2022-11-12T15:06:22.127Z,98141.16
2022-11-12T15:11:47.232Z,98140.31
2022-11-12T15:17:26.903Z,98149.00
2022-11-12T15:22:53.068Z,98149.53
2022-11-12T15:28:23.409Z,98157.38
2022-11-12T15:33:45.290Z,98157.91
2022-11-12T15:39:14.487Z,98163.03
2022-11-12T15:44:37.489Z,98175.53
2022-11-12T15:49:59.967Z,98173.88
2022-11-12T15:55:21.846Z,98178.44
2022-11-12T16:00:44.177Z,98179.97
2022-11-12T16:06:09.184Z,98185.41
2022-11-12T16:11:31.625Z,98192.41
2022-11-12T16:16:54.085Z,98195.88
2022-11-12T16:22:16.164Z,98195.59
2022-11-12T16:27:39.132Z,98199.06
2022-11-12T16:33:01.455Z,98194.72
2022-11-12T16:38:23.346Z,98199.56
2022-11-12T16:43:45.483Z,98184.88
2022-11-12T16:49:12.494Z,98187.06
2022-11-12T16:54:36.463Z,98187.28
2022-11-12T16:59:58.330Z,98189.16
2022-11-12T17:05:22.765Z,98195.34
2022-11-12T17:10:44.770Z,98192.09
2022-11-12T17:16:07.725Z,98194.22
2022-11-12T17:21:30.711Z,98188.00
2022-11-12T17:26:53.306Z,98198.03
2022-11-12T17:32:15.411Z,98206.69
2022-11-12T17:37:37.479Z,98201.75
2022-11-12T17:42:59.591Z,98208.53
2022-11-12T17:48:21.835Z,98207.66
2022-11-12T17:53:43.924Z,98208.97
2022-11-12T17:59:05.643Z,98199.47
2022-11-12T18:04:30.739Z,98195.97
2022-11-12T18:09:53.981Z,98196.56
2022-11-12T18:15:16.830Z,98210.50
2022-11-12T18:20:42.790Z,98196.72
2022-11-12T18:26:04.529Z,98192.97
2022-11-12T18:31:29.696Z,98196.50
2022-11-12T18:36:51.744Z,98190.56
2022-11-12T18:42:13.318Z,98198.16
2022-11-12T18:47:34.617Z,98198.22
2022-11-12T18:52:57.018Z,98195.81
2022-11-12T18:58:19.144Z,98201.50
2022-11-12T19:03:40.570Z,98204.75
2022-11-12T19:09:03.693Z,98211.59
2022-11-12T19:14:25.882Z,98205.66
2022-11-12T19:19:48.053Z,98208.59
2022-11-12T19:25:10.130Z,98213.22
2022-11-12T19:30:32.703Z,98214.84
2022-11-12T19:35:54.494Z,98215.38
2022-11-12T19:41:20.115Z,98212.66
2022-11-12T19:46:42.413Z,98214.84
2022-11-12T19:52:07.165Z,98215.59
2022-11-12T19:57:29.480Z,98207.44
2022-11-12T20:02:51.819Z,98207.38
2022-11-12T20:08:13.899Z,98208.41
2022-11-12T20:13:35.965Z,98204.34
2022-11-12T20:18:58.286Z,98212.13
2022-11-12T20:24:21.257Z,98208.00
2022-11-12T20:29:43.862Z,98204.94
2022-11-12T20:35:15.250Z,98208.41
2022-11-12T20:40:41.143Z,98210.06
2022-11-12T20:46:03.217Z,98209.50
2022-11-12T20:51:26.917Z,98204.91
2022-11-12T20:56:49.152Z,98198.97
2022-11-12T21:02:11.962Z,98184.34
2022-11-12T21:07:33.936Z,98194.13
2022-11-12T21:12:55.978Z,98187.63
2022-11-12T21:18:18.894Z,98182.72
2022-11-12T21:23:42.670Z,98178.94
2022-11-12T21:29:04.836Z,98173.53
2022-11-12T21:34:26.641Z,98173.81
2022-11-12T21:39:49.059Z,98175.44
2022-11-12T21:45:11.997Z,98174.34
2022-11-12T21:50:37.868Z,98182.75
2022-11-12T21:56:21.349Z,98177.88
2022-11-12T22:01:42.769Z,98180.56
2022-11-12T22:07:05.460Z,98179.22
2022-11-12T22:12:27.078Z,98163.50
2022-11-12T22:17:48.656Z,98167.06
2022-11-12T22:23:10.126Z,98170.00
2022-11-12T22:28:32.450Z,98171.09
2022-11-12T22:33:55.346Z,98183.00
2022-11-12T22:39:17.278Z,98185.72
2022-11-12T22:44:39.309Z,98181.88
2022-11-12T22:50:01.327Z,98182.41
2022-11-12T22:55:23.452Z,98176.09
2022-11-12T23:00:46.840Z,98166.03
2022-11-12T23:06:08.890Z,98179.34
2022-11-12T23:11:36.210Z,98175.56
2022-11-12T23:17:02.254Z,98171.22
2022-11-12T23:22:24.608Z,98170.13
2022-11-12T23:27:46.377Z,98168.75
2022-11-12T23:33:08.926Z,98170.63
2022-11-12T23:38:32.201Z,98156.81
2022-11-12T23:43:55.976Z,98156.00
2022-11-12T23:49:17.578Z,98167.31
2022-11-12T23:54:39.525Z,98155.41
